Waswanipi, Canada
Current Conditions -  °F | °C
As of 12:49 AM on Thursday 18 Dec 2014 (Local Time) from CYNM Reporting Station
Light Snow Light Snow  
Wind Chill: -19°   Ceiling: 2400
Heat Index: -12°   Visibility: 9mi
Dew Point: -13°   Wind: 9mph
Humidity: 92%   Direction: 320°NW
Pressure: 30.01"   Gusts: NA
Location:  49.65°N, 76.48°W
Report Text: CYNM 180549Z AUTO 32008KT 9SM -SN FEW008 OVC024 M12/M13 A3001 RMK SLP186
Loading
Personal Weather Stations






























Interactive Weather Map New forecast layout! Learn more

10-Day Weather Forecast

Advertisements
Track Severe Weather on mobile